sensor_id;sensor_type;location;lat;lon;timestamp;temperature;humidity
55369;DHT22;41247;49.736;8.752;2023-02-01T00:03:11;3.40;99.90
55369;DHT22;41247;49.736;8.752;2023-02-01T00:06:52;3.40;99.90
55369;DHT22;41247;49.736;8.752;2023-02-01T00:10:33;3.40;99.90
55369;DHT22;41247;49.736;8.752;2023-02-01T00:14:13;3.40;99.90
55369;DHT22;41247;49.736;8.752;2023-02-01T00:17:54;3.40;99.90
55369;DHT22;41247;49.736;8.752;2023-02-01T00:21:35;3.40;99.90
55369;DHT22;41247;49.736;8.752;2023-02-01T00:25:16;3.40;99.90
55369;DHT22;41247;49.736;8.752;2023-02-01T00:28:56;3.40;99.90
55369;DHT22;41247;49.736;8.752;2023-02-01T00:32:37;3.40;99.90
55369;DHT22;41247;49.736;8.752;2023-02-01T00:36:18;3.40;99.90
55369;DHT22;41247;49.736;8.752;2023-02-01T00:39:58;3.40;99.90
55369;DHT22;41247;49.736;8.752;2023-02-01T00:43:39;3.40;99.90
55369;DHT22;41247;49.736;8.752;2023-02-01T00:47:20;3.40;99.90
55369;DHT22;41247;49.736;8.752;2023-02-01T00:51:03;3.40;99.90
55369;DHT22;41247;49.736;8.752;2023-02-01T00:54:45;3.40;99.90
55369;DHT22;41247;49.736;8.752;2023-02-01T00:58:26;3.40;99.90
55369;DHT22;41247;49.736;8.752;2023-02-01T01:02:06;3.40;99.90
55369;DHT22;41247;49.736;8.752;2023-02-01T01:05:48;3.50;99.90
55369;DHT22;41247;49.736;8.752;2023-02-01T01:09:29;3.50;99.90
55369;DHT22;41247;49.736;8.752;2023-02-01T01:13:10;3.50;99.90
55369;DHT22;41247;49.736;8.752;2023-02-01T01:16:51;3.40;99.90
55369;DHT22;41247;49.736;8.752;2023-02-01T01:20:34;3.50;99.90
55369;DHT22;41247;49.736;8.752;2023-02-01T01:24:15;3.50;99.90
55369;DHT22;41247;49.736;8.752;2023-02-01T01:27:56;3.50;99.90
55369;DHT22;41247;49.736;8.752;2023-02-01T01:31:38;3.50;99.90
55369;DHT22;41247;49.736;8.752;2023-02-01T01:35:18;3.50;99.90
55369;DHT22;41247;49.736;8.752;2023-02-01T01:38:59;3.50;99.90
55369;DHT22;41247;49.736;8.752;2023-02-01T01:42:41;3.60;99.90
55369;DHT22;41247;49.736;8.752;2023-02-01T01:46:30;3.60;99.90
55369;DHT22;41247;49.736;8.752;2023-02-01T01:50:16;3.60;99.90
55369;DHT22;41247;49.736;8.752;2023-02-01T01:54:15;3.60;99.90
55369;DHT22;41247;49.736;8.752;2023-02-01T01:58:07;3.60;99.90
55369;DHT22;41247;49.736;8.752;2023-02-01T02:01:52;3.60;99.90
55369;DHT22;41247;49.736;8.752;2023-02-01T02:05:33;3.60;99.90
55369;DHT22;41247;49.736;8.752;2023-02-01T02:09:15;3.60;99.90
55369;DHT22;41247;49.736;8.752;2023-02-01T02:12:56;3.60;99.90
55369;DHT22;41247;49.736;8.752;2023-02-01T02:16:58;3.60;99.90
55369;DHT22;41247;49.736;8.752;2023-02-01T02:21:15;3.60;99.90
55369;DHT22;41247;49.736;8.752;2023-02-01T02:25:23;3.60;99.90
55369;DHT22;41247;49.736;8.752;2023-02-01T02:29:50;3.60;99.90
55369;DHT22;41247;49.736;8.752;2023-02-01T02:34:00;3.60;99.90
55369;DHT22;41247;49.736;8.752;2023-02-01T02:38:10;3.60;99.90
55369;DHT22;41247;49.736;8.752;2023-02-01T02:42:30;3.60;99.90
55369;DHT22;41247;49.736;8.752;2023-02-01T02:46:22;3.60;99.90
55369;DHT22;41247;49.736;8.752;2023-02-01T02:50:11;3.60;99.90
55369;DHT22;41247;49.736;8.752;2023-02-01T02:54:05;3.60;99.90
55369;DHT22;41247;49.736;8.752;2023-02-01T02:57:55;3.60;99.90
55369;DHT22;41247;49.736;8.752;2023-02-01T03:01:37;3.60;99.90
55369;DHT22;41247;49.736;8.752;2023-02-01T03:05:18;3.60;99.90
55369;DHT22;41247;49.736;8.752;2023-02-01T03:09:02;3.60;99.90
55369;DHT22;41247;49.736;8.752;2023-02-01T03:12:47;3.60;99.90
55369;DHT22;41247;49.736;8.752;2023-02-01T03:20:25;3.60;99.90
55369;DHT22;41247;49.736;8.752;2023-02-01T03:28:07;3.60;99.90
55369;DHT22;41247;49.736;8.752;2023-02-01T03:31:49;3.60;99.90
55369;DHT22;41247;49.736;8.752;2023-02-01T03:35:43;3.60;99.90
55369;DHT22;41247;49.736;8.752;2023-02-01T03:39:48;3.50;99.90
55369;DHT22;41247;49.736;8.752;2023-02-01T03:43:37;3.60;99.90
55369;DHT22;41247;49.736;8.752;2023-02-01T03:47:28;3.60;99.90
55369;DHT22;41247;49.736;8.752;2023-02-01T03:51:11;3.60;99.90
55369;DHT22;41247;49.736;8.752;2023-02-01T03:54:53;3.50;99.90
55369;DHT22;41247;49.736;8.752;2023-02-01T03:58:35;3.60;99.90
55369;DHT22;41247;49.736;8.752;2023-02-01T04:02:16;3.60;99.90
55369;DHT22;41247;49.736;8.752;2023-02-01T04:05:56;3.60;99.90
55369;DHT22;41247;49.736;8.752;2023-02-01T04:09:37;3.60;99.90
55369;DHT22;41247;49.736;8.752;2023-02-01T04:13:17;3.70;99.90
55369;DHT22;41247;49.736;8.752;2023-02-01T04:16:58;3.70;99.90
55369;DHT22;41247;49.736;8.752;2023-02-01T04:20:39;3.70;99.90
55369;DHT22;41247;49.736;8.752;2023-02-01T04:24:19;3.70;99.90
55369;DHT22;41247;49.736;8.752;2023-02-01T04:28:00;3.70;99.90
55369;DHT22;41247;49.736;8.752;2023-02-01T04:31:40;3.70;99.90
55369;DHT22;41247;49.736;8.752;2023-02-01T04:35:21;3.70;99.90
55369;DHT22;41247;49.736;8.752;2023-02-01T04:39:02;3.70;99.90
55369;DHT22;41247;49.736;8.752;2023-02-01T04:42:42;3.70;99.90
55369;DHT22;41247;49.736;8.752;2023-02-01T04:46:23;3.80;99.90
55369;DHT22;41247;49.736;8.752;2023-02-01T04:50:04;3.80;99.90
55369;DHT22;41247;49.736;8.752;2023-02-01T04:53:45;3.80;99.90
55369;DHT22;41247;49.736;8.752;2023-02-01T04:57:26;3.80;99.90
55369;DHT22;41247;49.736;8.752;2023-02-01T05:01:07;3.80;99.90
55369;DHT22;41247;49.736;8.752;2023-02-01T05:04:47;3.80;99.90
55369;DHT22;41247;49.736;8.752;2023-02-01T05:08:28;3.80;99.90
55369;DHT22;41247;49.736;8.752;2023-02-01T05:12:10;3.80;99.90
55369;DHT22;41247;49.736;8.752;2023-02-01T05:15:50;3.80;99.90
55369;DHT22;41247;49.736;8.752;2023-02-01T05:19:31;3.80;99.90
55369;DHT22;41247;49.736;8.752;2023-02-01T05:23:12;3.80;99.90
55369;DHT22;41247;49.736;8.752;2023-02-01T05:26:52;3.80;99.90
55369;DHT22;41247;49.736;8.752;2023-02-01T05:30:33;3.70;99.90
55369;DHT22;41247;49.736;8.752;2023-02-01T05:34:14;3.70;99.90
55369;DHT22;41247;49.736;8.752;2023-02-01T05:37:56;3.70;99.90
55369;DHT22;41247;49.736;8.752;2023-02-01T05:41:37;3.70;99.90
55369;DHT22;41247;49.736;8.752;2023-02-01T05:45:18;3.60;99.90
55369;DHT22;41247;49.736;8.752;2023-02-01T05:48:58;3.60;99.90
55369;DHT22;41247;49.736;8.752;2023-02-01T05:52:39;3.60;99.90
55369;DHT22;41247;49.736;8.752;2023-02-01T05:56:19;3.50;99.90
55369;DHT22;41247;49.736;8.752;2023-02-01T06:00:00;3.50;99.90
55369;DHT22;41247;49.736;8.752;2023-02-01T06:03:41;3.50;99.90
55369;DHT22;41247;49.736;8.752;2023-02-01T06:07:21;3.40;99.90
55369;DHT22;41247;49.736;8.752;2023-02-01T06:11:04;3.40;99.90
55369;DHT22;41247;49.736;8.752;2023-02-01T06:14:45;3.40;99.90
55369;DHT22;41247;49.736;8.752;2023-02-01T06:18:26;3.50;99.90
55369;DHT22;41247;49.736;8.752;2023-02-01T06:22:06;3.50;99.90
55369;DHT22;41247;49.736;8.752;2023-02-01T06:25:47;3.50;99.90
55369;DHT22;41247;49.736;8.752;2023-02-01T06:29:27;3.60;99.90
55369;DHT22;41247;49.736;8.752;2023-02-01T06:33:08;3.60;99.90
55369;DHT22;41247;49.736;8.752;2023-02-01T06:36:49;3.60;99.90
55369;DHT22;41247;49.736;8.752;2023-02-01T06:40:29;3.70;99.90
55369;DHT22;41247;49.736;8.752;2023-02-01T06:44:10;3.70;99.90
55369;DHT22;41247;49.736;8.752;2023-02-01T06:47:51;3.70;99.90
55369;DHT22;41247;49.736;8.752;2023-02-01T06:51:31;3.70;99.90
55369;DHT22;41247;49.736;8.752;2023-02-01T06:55:12;3.70;99.90
55369;DHT22;41247;49.736;8.752;2023-02-01T06:58:53;3.70;99.90
55369;DHT22;41247;49.736;8.752;2023-02-01T07:02:33;3.80;99.90
55369;DHT22;41247;49.736;8.752;2023-02-01T07:06:14;3.70;99.90
55369;DHT22;41247;49.736;8.752;2023-02-01T07:09:55;3.70;99.90
55369;DHT22;41247;49.736;8.752;2023-02-01T07:13:36;3.70;99.90
55369;DHT22;41247;49.736;8.752;2023-02-01T07:17:16;3.70;99.90
55369;DHT22;41247;49.736;8.752;2023-02-01T07:20:57;3.60;99.90
55369;DHT22;41247;49.736;8.752;2023-02-01T07:24:38;3.60;99.90
55369;DHT22;41247;49.736;8.752;2023-02-01T07:28:19;3.50;99.90
55369;DHT22;41247;49.736;8.752;2023-02-01T07:32:00;3.60;99.90
55369;DHT22;41247;49.736;8.752;2023-02-01T07:35:40;3.60;99.90
55369;DHT22;41247;49.736;8.752;2023-02-01T07:39:21;3.60;99.90
55369;DHT22;41247;49.736;8.752;2023-02-01T07:43:01;3.70;99.90
55369;DHT22;41247;49.736;8.752;2023-02-01T07:46:42;3.70;99.90
55369;DHT22;41247;49.736;8.752;2023-02-01T07:50:23;3.60;99.90
55369;DHT22;41247;49.736;8.752;2023-02-01T07:54:03;3.50;99.90
55369;DHT22;41247;49.736;8.752;2023-02-01T07:57:44;3.50;99.90
55369;DHT22;41247;49.736;8.752;2023-02-01T08:01:27;3.50;99.90
55369;DHT22;41247;49.736;8.752;2023-02-01T08:05:08;3.40;99.90
55369;DHT22;41247;49.736;8.752;2023-02-01T08:08:50;3.30;99.90
55369;DHT22;41247;49.736;8.752;2023-02-01T08:12:31;3.30;99.90
55369;DHT22;41247;49.736;8.752;2023-02-01T08:16:13;3.30;99.90
55369;DHT22;41247;49.736;8.752;2023-02-01T08:19:55;3.30;99.90
55369;DHT22;41247;49.736;8.752;2023-02-01T08:23:36;3.30;99.90
55369;DHT22;41247;49.736;8.752;2023-02-01T08:27:17;3.30;99.90
55369;DHT22;41247;49.736;8.752;2023-02-01T08:30:58;3.40;99.90
55369;DHT22;41247;49.736;8.752;2023-02-01T08:34:38;3.50;99.90
55369;DHT22;41247;49.736;8.752;2023-02-01T08:38:19;3.50;99.90
55369;DHT22;41247;49.736;8.752;2023-02-01T08:41:59;3.50;99.90
55369;DHT22;41247;49.736;8.752;2023-02-01T08:45:40;3.60;99.90
55369;DHT22;41247;49.736;8.752;2023-02-01T08:49:21;3.60;99.90
55369;DHT22;41247;49.736;8.752;2023-02-01T08:53:01;3.60;99.90
55369;DHT22;41247;49.736;8.752;2023-02-01T08:56:42;3.70;99.90
55369;DHT22;41247;49.736;8.752;2023-02-01T09:00:23;3.80;99.90
55369;DHT22;41247;49.736;8.752;2023-02-01T09:04:03;3.90;99.90
55369;DHT22;41247;49.736;8.752;2023-02-01T09:07:44;3.90;99.90
55369;DHT22;41247;49.736;8.752;2023-02-01T09:11:24;4.00;99.90
55369;DHT22;41247;49.736;8.752;2023-02-01T09:15:06;3.90;99.90
55369;DHT22;41247;49.736;8.752;2023-02-01T09:18:46;4.00;99.90
55369;DHT22;41247;49.736;8.752;2023-02-01T09:22:27;4.00;99.90
55369;DHT22;41247;49.736;8.752;2023-02-01T09:26:08;4.00;99.90
55369;DHT22;41247;49.736;8.752;2023-02-01T09:29:49;4.00;99.90
55369;DHT22;41247;49.736;8.752;2023-02-01T09:33:30;4.00;99.90
55369;DHT22;41247;49.736;8.752;2023-02-01T09:37:11;4.10;99.90
55369;DHT22;41247;49.736;8.752;2023-02-01T09:40:51;4.10;99.90
55369;DHT22;41247;49.736;8.752;2023-02-01T09:48:33;4.30;99.90
55369;DHT22;41247;49.736;8.752;2023-02-01T09:52:17;4.50;99.90
55369;DHT22;41247;49.736;8.752;2023-02-01T09:56:23;4.70;99.90
55369;DHT22;41247;49.736;8.752;2023-02-01T10:00:12;4.70;99.90
55369;DHT22;41247;49.736;8.752;2023-02-01T10:04:04;4.70;99.90
55369;DHT22;41247;49.736;8.752;2023-02-01T10:08:01;4.60;99.90
55369;DHT22;41247;49.736;8.752;2023-02-01T10:25:05;4.50;99.90
55369;DHT22;41247;49.736;8.752;2023-02-01T10:29:20;4.50;99.90
55369;DHT22;41247;49.736;8.752;2023-02-01T10:37:02;4.50;99.90
55369;DHT22;41247;49.736;8.752;2023-02-01T10:41:00;4.50;99.90
55369;DHT22;41247;49.736;8.752;2023-02-01T10:44:45;4.60;99.90
55369;DHT22;41247;49.736;8.752;2023-02-01T10:48:26;4.60;99.90
55369;DHT22;41247;49.736;8.752;2023-02-01T10:52:17;4.70;99.90
55369;DHT22;41247;49.736;8.752;2023-02-01T10:56:07;4.60;99.90
55369;DHT22;41247;49.736;8.752;2023-02-01T10:59:48;4.70;99.90
55369;DHT22;41247;49.736;8.752;2023-02-01T11:07:23;4.80;99.90
55369;DHT22;41247;49.736;8.752;2023-02-01T11:11:05;4.80;99.90
55369;DHT22;41247;49.736;8.752;2023-02-01T11:14:47;4.80;99.90
55369;DHT22;41247;49.736;8.752;2023-02-01T11:18:30;4.70;99.90
55369;DHT22;41247;49.736;8.752;2023-02-01T11:22:14;4.70;99.90
55369;DHT22;41247;49.736;8.752;2023-02-01T11:26:00;4.70;99.90
55369;DHT22;41247;49.736;8.752;2023-02-01T11:29:43;4.60;99.90
55369;DHT22;41247;49.736;8.752;2023-02-01T11:33:31;4.60;99.90
55369;DHT22;41247;49.736;8.752;2023-02-01T11:37:33;4.50;99.90
55369;DHT22;41247;49.736;8.752;2023-02-01T11:41:25;4.60;99.90
55369;DHT22;41247;49.736;8.752;2023-02-01T11:45:18;4.50;99.90
55369;DHT22;41247;49.736;8.752;2023-02-01T11:49:25;4.60;99.90
55369;DHT22;41247;49.736;8.752;2023-02-01T11:57:21;4.50;99.90
55369;DHT22;41247;49.736;8.752;2023-02-01T12:06:27;4.50;99.90
55369;DHT22;41247;49.736;8.752;2023-02-01T12:10:03;4.50;99.90
55369;DHT22;41247;49.736;8.752;2023-02-01T12:14:14;4.60;99.90
55369;DHT22;41247;49.736;8.752;2023-02-01T12:22:45;4.90;99.90
55369;DHT22;41247;49.736;8.752;2023-02-01T12:27:01;5.00;99.90
55369;DHT22;41247;49.736;8.752;2023-02-01T12:39:32;4.90;99.90
55369;DHT22;41247;49.736;8.752;2023-02-01T12:43:47;4.90;99.90
55369;DHT22;41247;49.736;8.752;2023-02-01T12:47:38;4.90;99.90
55369;DHT22;41247;49.736;8.752;2023-02-01T12:51:34;4.80;99.90
55369;DHT22;41247;49.736;8.752;2023-02-01T12:55:24;4.80;99.90
55369;DHT22;41247;49.736;8.752;2023-02-01T12:59:30;4.80;99.90
55369;DHT22;41247;49.736;8.752;2023-02-01T13:03:42;4.80;99.90
55369;DHT22;41247;49.736;8.752;2023-02-01T13:07:47;4.80;99.90
55369;DHT22;41247;49.736;8.752;2023-02-01T13:11:36;4.80;99.90
55369;DHT22;41247;49.736;8.752;2023-02-01T13:15:26;4.80;99.90
55369;DHT22;41247;49.736;8.752;2023-02-01T13:19:20;4.80;99.90
55369;DHT22;41247;49.736;8.752;2023-02-01T13:23:11;4.80;99.90
55369;DHT22;41247;49.736;8.752;2023-02-01T13:26:59;4.80;99.90
55369;DHT22;41247;49.736;8.752;2023-02-01T13:35:22;4.80;99.90
55369;DHT22;41247;49.736;8.752;2023-02-01T13:39:45;4.70;99.90
55369;DHT22;41247;49.736;8.752;2023-02-01T13:43:50;4.70;99.90
55369;DHT22;41247;49.736;8.752;2023-02-01T13:47:39;4.70;99.90
55369;DHT22;41247;49.736;8.752;2023-02-01T13:51:51;4.60;99.90
55369;DHT22;41247;49.736;8.752;2023-02-01T13:55:36;4.60;99.90
55369;DHT22;41247;49.736;8.752;2023-02-01T13:59:49;4.60;99.90
55369;DHT22;41247;49.736;8.752;2023-02-01T14:03:45;4.60;99.90
55369;DHT22;41247;49.736;8.752;2023-02-01T14:11:53;4.60;99.90
55369;DHT22;41247;49.736;8.752;2023-02-01T14:15:36;4.60;99.90
55369;DHT22;41247;49.736;8.752;2023-02-01T14:19:28;4.60;99.90
55369;DHT22;41247;49.736;8.752;2023-02-01T14:23:16;4.70;99.90
55369;DHT22;41247;49.736;8.752;2023-02-01T14:30:54;4.70;99.90
55369;DHT22;41247;49.736;8.752;2023-02-01T14:35:06;4.60;99.90
55369;DHT22;41247;49.736;8.752;2023-02-01T14:38:49;4.60;99.90
55369;DHT22;41247;49.736;8.752;2023-02-01T14:42:49;4.60;99.90
55369;DHT22;41247;49.736;8.752;2023-02-01T14:47:03;4.60;99.90
55369;DHT22;41247;49.736;8.752;2023-02-01T14:50:47;4.60;99.90
55369;DHT22;41247;49.736;8.752;2023-02-01T14:54:28;4.60;99.90
55369;DHT22;41247;49.736;8.752;2023-02-01T15:02:33;4.70;99.90
55369;DHT22;41247;49.736;8.752;2023-02-01T15:10:09;4.70;99.90
55369;DHT22;41247;49.736;8.752;2023-02-01T15:13:51;4.70;99.90
55369;DHT22;41247;49.736;8.752;2023-02-01T15:17:33;4.70;99.90
55369;DHT22;41247;49.736;8.752;2023-02-01T15:21:22;4.60;99.90
55369;DHT22;41247;49.736;8.752;2023-02-01T15:25:03;4.70;99.90
55369;DHT22;41247;49.736;8.752;2023-02-01T15:28:44;4.70;99.90
55369;DHT22;41247;49.736;8.752;2023-02-01T15:32:37;4.70;99.90
55369;DHT22;41247;49.736;8.752;2023-02-01T15:36:19;4.70;99.90
55369;DHT22;41247;49.736;8.752;2023-02-01T15:40:22;4.70;99.90
55369;DHT22;41247;49.736;8.752;2023-02-01T15:48:24;4.80;99.90
55369;DHT22;41247;49.736;8.752;2023-02-01T15:52:29;4.80;99.90
55369;DHT22;41247;49.736;8.752;2023-02-01T15:56:12;4.90;99.90
55369;DHT22;41247;49.736;8.752;2023-02-01T15:59:52;5.00;99.90
55369;DHT22;41247;49.736;8.752;2023-02-01T16:03:39;4.90;99.90
55369;DHT22;41247;49.736;8.752;2023-02-01T16:07:28;5.00;99.90
55369;DHT22;41247;49.736;8.752;2023-02-01T16:11:32;5.00;99.90
55369;DHT22;41247;49.736;8.752;2023-02-01T16:15:19;5.00;99.90
55369;DHT22;41247;49.736;8.752;2023-02-01T16:19:00;4.90;99.90
55369;DHT22;41247;49.736;8.752;2023-02-01T16:22:40;4.90;99.90
55369;DHT22;41247;49.736;8.752;2023-02-01T16:26:21;4.90;99.90
55369;DHT22;41247;49.736;8.752;2023-02-01T16:30:02;4.90;99.90
55369;DHT22;41247;49.736;8.752;2023-02-01T16:33:43;4.90;99.90
55369;DHT22;41247;49.736;8.752;2023-02-01T16:37:24;4.90;99.90
55369;DHT22;41247;49.736;8.752;2023-02-01T16:41:05;4.90;99.90
55369;DHT22;41247;49.736;8.752;2023-02-01T16:44:46;4.90;99.90
55369;DHT22;41247;49.736;8.752;2023-02-01T16:48:29;4.80;99.90
55369;DHT22;41247;49.736;8.752;2023-02-01T16:52:21;4.80;99.90
55369;DHT22;41247;49.736;8.752;2023-02-01T16:59:57;4.80;99.90
55369;DHT22;41247;49.736;8.752;2023-02-01T17:03:39;4.80;99.90
55369;DHT22;41247;49.736;8.752;2023-02-01T17:07:20;4.80;99.90
55369;DHT22;41247;49.736;8.752;2023-02-01T17:11:01;4.80;99.90
55369;DHT22;41247;49.736;8.752;2023-02-01T17:14:42;4.80;99.90
55369;DHT22;41247;49.736;8.752;2023-02-01T17:18:23;4.80;99.90
55369;DHT22;41247;49.736;8.752;2023-02-01T17:22:04;4.80;99.90
55369;DHT22;41247;49.736;8.752;2023-02-01T17:25:44;4.80;99.90
55369;DHT22;41247;49.736;8.752;2023-02-01T17:29:25;4.80;99.90
55369;DHT22;41247;49.736;8.752;2023-02-01T17:37:05;4.80;99.90
55369;DHT22;41247;49.736;8.752;2023-02-01T17:40:46;4.80;99.90
55369;DHT22;41247;49.736;8.752;2023-02-01T17:44:27;4.80;99.90
55369;DHT22;41247;49.736;8.752;2023-02-01T17:48:07;4.80;99.90
55369;DHT22;41247;49.736;8.752;2023-02-01T17:51:48;4.70;99.90
55369;DHT22;41247;49.736;8.752;2023-02-01T17:55:29;4.70;99.90
55369;DHT22;41247;49.736;8.752;2023-02-01T17:59:11;4.70;99.90
55369;DHT22;41247;49.736;8.752;2023-02-01T18:02:51;4.70;99.90
55369;DHT22;41247;49.736;8.752;2023-02-01T18:06:34;4.70;99.90
55369;DHT22;41247;49.736;8.752;2023-02-01T18:10:14;4.70;99.90
55369;DHT22;41247;49.736;8.752;2023-02-01T18:13:55;4.70;99.90
55369;DHT22;41247;49.736;8.752;2023-02-01T18:17:36;4.70;99.90
55369;DHT22;41247;49.736;8.752;2023-02-01T18:21:18;4.70;99.90
55369;DHT22;41247;49.736;8.752;2023-02-01T18:25:00;4.70;99.90
55369;DHT22;41247;49.736;8.752;2023-02-01T18:28:41;4.70;99.90
55369;DHT22;41247;49.736;8.752;2023-02-01T18:32:22;4.70;99.90
55369;DHT22;41247;49.736;8.752;2023-02-01T18:36:03;4.70;99.90
55369;DHT22;41247;49.736;8.752;2023-02-01T18:39:44;4.70;99.90
55369;DHT22;41247;49.736;8.752;2023-02-01T18:43:24;4.70;99.90
55369;DHT22;41247;49.736;8.752;2023-02-01T18:47:05;4.70;99.90
55369;DHT22;41247;49.736;8.752;2023-02-01T18:50:46;4.70;99.90
55369;DHT22;41247;49.736;8.752;2023-02-01T18:54:26;4.70;99.90
55369;DHT22;41247;49.736;8.752;2023-02-01T18:58:07;4.70;99.90
55369;DHT22;41247;49.736;8.752;2023-02-01T19:01:54;4.60;99.90
55369;DHT22;41247;49.736;8.752;2023-02-01T19:05:35;4.60;99.90
55369;DHT22;41247;49.736;8.752;2023-02-01T19:09:15;4.60;99.90
55369;DHT22;41247;49.736;8.752;2023-02-01T19:12:56;4.60;99.90
55369;DHT22;41247;49.736;8.752;2023-02-01T19:16:37;4.60;99.90
55369;DHT22;41247;49.736;8.752;2023-02-01T19:20:20;4.70;99.90
55369;DHT22;41247;49.736;8.752;2023-02-01T19:24:02;4.70;99.90
55369;DHT22;41247;49.736;8.752;2023-02-01T19:27:43;4.70;99.90
55369;DHT22;41247;49.736;8.752;2023-02-01T19:31:24;4.60;99.90
55369;DHT22;41247;49.736;8.752;2023-02-01T19:35:06;4.60;99.90
55369;DHT22;41247;49.736;8.752;2023-02-01T19:38:47;4.60;99.90
55369;DHT22;41247;49.736;8.752;2023-02-01T19:42:27;4.60;99.90
55369;DHT22;41247;49.736;8.752;2023-02-01T19:46:08;4.60;99.90
55369;DHT22;41247;49.736;8.752;2023-02-01T19:49:49;4.60;99.90
55369;DHT22;41247;49.736;8.752;2023-02-01T19:53:29;4.60;99.90
55369;DHT22;41247;49.736;8.752;2023-02-01T19:57:10;4.60;99.90
55369;DHT22;41247;49.736;8.752;2023-02-01T20:00:55;4.60;99.90
55369;DHT22;41247;49.736;8.752;2023-02-01T20:04:36;4.60;99.90
55369;DHT22;41247;49.736;8.752;2023-02-01T20:08:17;4.60;99.90
55369;DHT22;41247;49.736;8.752;2023-02-01T20:11:58;4.60;99.90
55369;DHT22;41247;49.736;8.752;2023-02-01T20:15:38;4.60;99.90
55369;DHT22;41247;49.736;8.752;2023-02-01T20:19:19;4.60;99.90
55369;DHT22;41247;49.736;8.752;2023-02-01T20:23:00;4.70;99.90
55369;DHT22;41247;49.736;8.752;2023-02-01T20:26:40;4.70;99.90
55369;DHT22;41247;49.736;8.752;2023-02-01T20:30:21;4.70;99.90
55369;DHT22;41247;49.736;8.752;2023-02-01T20:34:02;4.70;99.90
55369;DHT22;41247;49.736;8.752;2023-02-01T20:37:43;4.60;99.90
55369;DHT22;41247;49.736;8.752;2023-02-01T20:41:24;4.70;99.90
55369;DHT22;41247;49.736;8.752;2023-02-01T20:45:06;4.70;99.90
55369;DHT22;41247;49.736;8.752;2023-02-01T20:48:48;4.70;99.90
55369;DHT22;41247;49.736;8.752;2023-02-01T20:52:29;4.70;99.90
55369;DHT22;41247;49.736;8.752;2023-02-01T20:56:11;4.60;99.90
55369;DHT22;41247;49.736;8.752;2023-02-01T20:59:52;4.60;99.90
55369;DHT22;41247;49.736;8.752;2023-02-01T21:03:33;4.60;99.90
55369;DHT22;41247;49.736;8.752;2023-02-01T21:07:14;4.60;99.90
55369;DHT22;41247;49.736;8.752;2023-02-01T21:14:36;4.70;99.90
55369;DHT22;41247;49.736;8.752;2023-02-01T21:18:17;4.60;99.90
55369;DHT22;41247;49.736;8.752;2023-02-01T21:21:57;4.60;99.90
55369;DHT22;41247;49.736;8.752;2023-02-01T21:25:39;4.60;99.90
55369;DHT22;41247;49.736;8.752;2023-02-01T21:29:21;4.60;99.90
55369;DHT22;41247;49.736;8.752;2023-02-01T21:33:01;4.60;99.90
55369;DHT22;41247;49.736;8.752;2023-02-01T21:36:42;4.60;99.90
55369;DHT22;41247;49.736;8.752;2023-02-01T21:40:22;4.60;99.90
55369;DHT22;41247;49.736;8.752;2023-02-01T21:44:04;4.60;99.90
55369;DHT22;41247;49.736;8.752;2023-02-01T21:47:45;4.60;99.90
55369;DHT22;41247;49.736;8.752;2023-02-01T21:51:26;4.60;99.90
55369;DHT22;41247;49.736;8.752;2023-02-01T21:55:07;4.70;99.90
55369;DHT22;41247;49.736;8.752;2023-02-01T21:58:48;4.70;99.90
55369;DHT22;41247;49.736;8.752;2023-02-01T22:02:29;4.70;99.90
55369;DHT22;41247;49.736;8.752;2023-02-01T22:06:09;4.70;99.90
55369;DHT22;41247;49.736;8.752;2023-02-01T22:10:02;4.70;99.90
55369;DHT22;41247;49.736;8.752;2023-02-01T22:13:43;4.70;99.90
55369;DHT22;41247;49.736;8.752;2023-02-01T22:17:24;4.70;99.90
55369;DHT22;41247;49.736;8.752;2023-02-01T22:21:04;4.60;99.90
55369;DHT22;41247;49.736;8.752;2023-02-01T22:24:45;4.70;99.90
55369;DHT22;41247;49.736;8.752;2023-02-01T22:28:26;4.70;99.90
55369;DHT22;41247;49.736;8.752;2023-02-01T22:32:07;4.70;99.90
55369;DHT22;41247;49.736;8.752;2023-02-01T22:35:48;4.70;99.90
55369;DHT22;41247;49.736;8.752;2023-02-01T22:39:29;4.70;99.90
55369;DHT22;41247;49.736;8.752;2023-02-01T22:43:10;4.70;99.90
55369;DHT22;41247;49.736;8.752;2023-02-01T22:46:51;4.70;99.90
55369;DHT22;41247;49.736;8.752;2023-02-01T22:50:31;4.70;99.90
55369;DHT22;41247;49.736;8.752;2023-02-01T22:54:16;4.80;99.90
55369;DHT22;41247;49.736;8.752;2023-02-01T22:57:59;4.80;99.90
55369;DHT22;41247;49.736;8.752;2023-02-01T23:01:40;4.80;99.90
55369;DHT22;41247;49.736;8.752;2023-02-01T23:05:21;4.90;99.90
55369;DHT22;41247;49.736;8.752;2023-02-01T23:09:12;4.90;99.90
55369;DHT22;41247;49.736;8.752;2023-02-01T23:12:55;4.90;99.90
55369;DHT22;41247;49.736;8.752;2023-02-01T23:16:35;4.90;99.90
55369;DHT22;41247;49.736;8.752;2023-02-01T23:20:17;4.90;99.90
55369;DHT22;41247;49.736;8.752;2023-02-01T23:23:59;4.90;99.90
55369;DHT22;41247;49.736;8.752;2023-02-01T23:27:41;4.90;99.90
55369;DHT22;41247;49.736;8.752;2023-02-01T23:31:25;4.80;99.90
55369;DHT22;41247;49.736;8.752;2023-02-01T23:35:08;4.60;99.90
55369;DHT22;41247;49.736;8.752;2023-02-01T23:38:49;4.60;99.90
55369;DHT22;41247;49.736;8.752;2023-02-01T23:42:30;4.50;99.90
55369;DHT22;41247;49.736;8.752;2023-02-01T23:46:11;4.50;99.90
55369;DHT22;41247;49.736;8.752;2023-02-01T23:49:52;4.50;99.90
55369;DHT22;41247;49.736;8.752;2023-02-01T23:53:33;4.50;99.90
55369;DHT22;41247;49.736;8.752;2023-02-01T23:57:14;4.50;99.90
